createdAt,value
2023-03-10T00:00:58.001Z,80.10
2023-03-10T00:03:28.844Z,80.00
2023-03-10T00:06:00.239Z,80.10
2023-03-10T00:08:31.042Z,80.00
2023-03-10T00:11:02.317Z,80.20
2023-03-10T00:13:32.908Z,80.00
2023-03-10T00:16:07.579Z,80.30
2023-03-10T00:18:38.516Z,80.20
2023-03-10T00:21:09.812Z,80.30
2023-03-10T00:23:40.661Z,80.50
2023-03-10T00:26:15.022Z,80.70
2023-03-10T00:28:46.776Z,80.70
2023-03-10T00:31:25.589Z,80.60
2023-03-10T00:33:58.104Z,80.70
2023-03-10T00:36:31.617Z,80.80
2023-03-10T00:39:05.020Z,80.80
2023-03-10T00:41:39.320Z,81.00
2023-03-10T00:44:12.154Z,81.10
2023-03-10T00:46:46.634Z,81.10
2023-03-10T00:49:19.644Z,81.10
2023-03-10T00:51:51.074Z,81.00
2023-03-10T00:54:23.001Z,81.10
2023-03-10T00:56:54.280Z,81.20
2023-03-10T00:59:25.503Z,81.00
2023-03-10T01:01:59.282Z,81.10
2023-03-10T01:04:30.477Z,81.90
2023-03-10T01:07:01.692Z,81.40
2023-03-10T01:09:32.994Z,81.50
2023-03-10T01:12:04.094Z,81.40
2023-03-10T01:14:35.515Z,81.50
2023-03-10T01:17:10.742Z,81.80
2023-03-10T01:19:41.615Z,81.50
2023-03-10T01:22:12.960Z,81.40
2023-03-10T01:24:43.693Z,81.30
2023-03-10T01:27:14.519Z,82.10
2023-03-10T01:29:45.309Z,81.80
2023-03-10T01:32:19.072Z,82.10
2023-03-10T01:34:50.123Z,81.50
2023-03-10T01:37:21.461Z,81.70
2023-03-10T01:39:52.236Z,81.90
2023-03-10T01:42:23.735Z,82.00
2023-03-10T01:45:11.305Z,82.40
2023-03-10T01:47:45.386Z,82.70
2023-03-10T01:50:19.028Z,82.60
2023-03-10T01:52:58.536Z,82.80
2023-03-10T01:55:34.223Z,83.30
2023-03-10T01:58:07.727Z,83.70
2023-03-10T02:00:39.716Z,84.00
2023-03-10T02:03:20.827Z,84.50
2023-03-10T02:05:59.160Z,84.60
2023-03-10T02:08:36.808Z,85.60
2023-03-10T02:11:08.548Z,85.50
2023-03-10T02:13:39.736Z,86.50
2023-03-10T02:16:10.692Z,86.80
2023-03-10T02:18:46.920Z,88.50
2023-03-10T02:21:23.915Z,88.10
2023-03-10T02:24:01.990Z,88.40
2023-03-10T02:26:39.383Z,89.00
2023-03-10T02:29:17.442Z,90.10
2023-03-10T02:31:48.835Z,90.20
2023-03-10T02:34:20.325Z,90.60
2023-03-10T02:36:51.255Z,90.90
2023-03-10T02:39:23.231Z,91.10
2023-03-10T02:41:55.537Z,91.30
2023-03-10T02:44:30.407Z,91.70
2023-03-10T02:47:01.217Z,92.50
2023-03-10T02:49:32.891Z,92.70
2023-03-10T02:52:10.143Z,92.90
2023-03-10T02:54:41.306Z,93.10
2023-03-10T02:57:11.717Z,93.10
2023-03-10T02:59:45.695Z,94.40
2023-03-10T03:02:16.671Z,93.70
2023-03-10T03:04:48.064Z,93.80
2023-03-10T03:07:18.920Z,93.90
2023-03-10T03:09:50.105Z,94.00
2023-03-10T03:12:20.673Z,94.30
2023-03-10T03:14:54.485Z,94.80
2023-03-10T03:17:25.994Z,94.40
2023-03-10T03:19:57.404Z,94.40
2023-03-10T03:22:28.115Z,94.20
2023-03-10T03:25:00.025Z,94.90
2023-03-10T03:27:30.876Z,94.40
2023-03-10T03:30:04.745Z,94.20
2023-03-10T03:32:35.925Z,94.10
2023-03-10T03:35:13.375Z,94.10
2023-03-10T03:37:44.292Z,94.20
2023-03-10T03:40:17.538Z,94.40
2023-03-10T03:42:52.296Z,94.50
2023-03-10T03:45:28.712Z,94.60
2023-03-10T03:48:00.685Z,94.60
2023-03-10T03:50:34.937Z,94.90
2023-03-10T03:53:11.911Z,94.90
2023-03-10T03:55:43.250Z,95.10
2023-03-10T03:58:14.377Z,95.10
2023-03-10T04:00:50.430Z,95.50
2023-03-10T04:03:22.724Z,95.50
2023-03-10T04:05:54.199Z,95.80
2023-03-10T04:08:26.292Z,95.90
2023-03-10T04:10:58.971Z,96.30
2023-03-10T04:13:32.305Z,96.20
2023-03-10T04:16:06.289Z,96.40
2023-03-10T04:18:40.242Z,96.30
2023-03-10T04:21:14.310Z,96.90
2023-03-10T04:23:45.757Z,96.90
2023-03-10T04:26:21.136Z,96.90
2023-03-10T04:28:52.051Z,97.00
2023-03-10T04:31:28.079Z,97.40
2023-03-10T04:33:59.512Z,97.50
2023-03-10T04:36:31.462Z,97.50
2023-03-10T04:39:05.301Z,97.60
2023-03-10T04:41:37.110Z,98.00
2023-03-10T04:44:17.636Z,98.00
2023-03-10T04:46:59.432Z,98.10
2023-03-10T04:49:30.647Z,98.60
2023-03-10T04:52:03.029Z,98.50
2023-03-10T04:54:34.142Z,99.10
2023-03-10T04:57:06.198Z,98.90
2023-03-10T04:59:38.027Z,98.90
2023-03-10T05:02:12.270Z,99.40
2023-03-10T05:04:44.428Z,99.20
2023-03-10T05:07:16.712Z,99.90
2023-03-10T05:09:50.958Z,99.90
2023-03-10T05:12:22.910Z,99.90
2023-03-10T05:14:53.990Z,99.90
2023-03-10T05:17:28.771Z,99.90
2023-03-10T05:20:00.691Z,99.90
2023-03-10T05:22:32.642Z,99.90
2023-03-10T05:25:04.023Z,99.90
2023-03-10T05:27:36.108Z,99.90
2023-03-10T05:30:08.543Z,99.90
2023-03-10T05:32:44.116Z,99.90
2023-03-10T05:35:16.583Z,99.90
2023-03-10T05:37:49.830Z,99.90
2023-03-10T05:40:22.760Z,99.90
2023-03-10T05:42:55.139Z,99.90
2023-03-10T05:45:27.997Z,99.90
2023-03-10T05:48:02.623Z,99.90
2023-03-10T05:50:34.300Z,99.90
2023-03-10T05:53:06.684Z,99.90
2023-03-10T05:55:37.808Z,99.90
2023-03-10T05:58:10.229Z,99.90
2023-03-10T06:00:41.128Z,99.90
2023-03-10T06:03:15.989Z,99.90
2023-03-10T06:05:47.434Z,99.90
2023-03-10T06:08:19.211Z,99.90
2023-03-10T06:10:50.138Z,99.90
2023-03-10T06:13:22.608Z,99.90
2023-03-10T06:15:54.310Z,99.90
2023-03-10T06:18:28.899Z,99.90
2023-03-10T06:21:01.562Z,99.90
2023-03-10T06:23:33.668Z,99.90
2023-03-10T06:26:07.142Z,99.90
2023-03-10T06:28:41.511Z,99.90
2023-03-10T06:31:16.228Z,99.90
2023-03-10T06:33:50.506Z,99.90
2023-03-10T06:36:21.956Z,99.90
2023-03-10T06:38:54.211Z,99.90
2023-03-10T06:41:25.842Z,99.90
2023-03-10T06:43:57.575Z,99.90
2023-03-10T06:46:29.329Z,99.90
2023-03-10T06:49:07.171Z,99.90
2023-03-10T06:51:38.720Z,99.90
2023-03-10T06:54:10.893Z,99.90
2023-03-10T06:56:42.338Z,99.90
2023-03-10T06:59:14.263Z,99.90
2023-03-10T07:01:45.885Z,99.90
2023-03-10T07:04:20.532Z,99.90
2023-03-10T07:06:51.601Z,99.90
2023-03-10T07:09:23.604Z,99.90
2023-03-10T07:11:54.687Z,99.90
2023-03-10T07:14:26.181Z,99.90
2023-03-10T07:16:58.049Z,99.90
2023-03-10T07:19:31.841Z,99.90
2023-03-10T07:22:04.664Z,99.90
2023-03-10T07:24:36.821Z,99.90
2023-03-10T07:27:08.729Z,99.90
2023-03-10T07:29:40.662Z,99.90
2023-03-10T07:32:11.899Z,99.90
2023-03-10T07:34:46.303Z,99.90
2023-03-10T07:37:18.002Z,99.90
2023-03-10T07:39:49.552Z,99.90
2023-03-10T07:42:20.969Z,99.90
2023-03-10T07:44:52.814Z,99.90
2023-03-10T07:47:24.266Z,99.90
2023-03-10T07:49:58.495Z,99.90
2023-03-10T07:52:32.584Z,99.90
2023-03-10T07:55:04.323Z,99.90
2023-03-10T07:57:35.664Z,99.90
2023-03-10T08:00:07.912Z,99.90
2023-03-10T08:02:45.098Z,99.90
2023-03-10T08:05:19.146Z,99.90
2023-03-10T08:07:50.036Z,99.90
2023-03-10T08:10:21.906Z,99.90
2023-03-10T08:12:52.971Z,99.90
2023-03-10T08:15:25.278Z,99.90
2023-03-10T08:17:56.181Z,99.90
2023-03-10T08:20:32.441Z,99.90
2023-03-10T08:23:04.153Z,99.90
2023-03-10T08:25:35.556Z,99.90
2023-03-10T08:28:07.146Z,99.90
2023-03-10T08:30:45.867Z,99.90
2023-03-10T08:33:24.666Z,99.90
2023-03-10T08:36:12.922Z,99.90
2023-03-10T08:38:44.082Z,99.90
2023-03-10T08:41:17.462Z,99.90
2023-03-10T08:43:49.535Z,99.90
2023-03-10T08:46:23.113Z,99.90
2023-03-10T08:48:54.197Z,99.90
2023-03-10T08:51:28.744Z,99.90
2023-03-10T08:54:00.527Z,99.90
2023-03-10T08:56:31.716Z,99.90
2023-03-10T08:59:02.524Z,99.90
2023-03-10T09:01:35.883Z,99.90
2023-03-10T09:04:08.867Z,99.90
2023-03-10T09:06:42.980Z,99.90
2023-03-10T09:09:14.854Z,99.90
2023-03-10T09:11:46.603Z,99.90
2023-03-10T09:14:19.048Z,99.90
2023-03-10T09:16:50.260Z,99.90
2023-03-10T09:19:20.791Z,99.90
2023-03-10T09:21:55.691Z,99.90
2023-03-10T09:24:26.434Z,99.90
2023-03-10T09:26:58.492Z,99.90
2023-03-10T09:29:42.596Z,99.90
2023-03-10T09:32:14.716Z,99.90
2023-03-10T09:34:45.851Z,99.90
2023-03-10T09:37:19.991Z,99.90
2023-03-10T09:39:51.308Z,99.90
2023-03-10T09:42:38.917Z,99.90
2023-03-10T09:45:29.646Z,99.90
2023-03-10T09:48:06.376Z,99.90
2023-03-10T09:50:41.875Z,99.90
2023-03-10T09:53:41.899Z,99.90
2023-03-10T09:56:18.716Z,99.90
2023-03-10T09:58:53.318Z,99.90
2023-03-10T10:01:26.608Z,99.90
2023-03-10T10:04:01.456Z,99.90
2023-03-10T10:06:36.607Z,99.90
2023-03-10T10:09:18.091Z,99.90
2023-03-10T10:11:48.882Z,99.90
2023-03-10T10:14:29.506Z,99.90
2023-03-10T10:17:06.292Z,99.90
2023-03-10T10:19:41.268Z,99.90
2023-03-10T10:22:18.277Z,99.90
2023-03-10T10:25:12.540Z,99.90
2023-03-10T10:27:45.770Z,99.90
2023-03-10T10:30:33.608Z,99.90
2023-03-10T10:33:06.104Z,99.90
2023-03-10T10:35:39.464Z,99.90
2023-03-10T10:38:21.949Z,99.90
2023-03-10T10:41:05.088Z,99.90
2023-03-10T10:43:44.785Z,99.90
2023-03-10T10:46:18.117Z,99.90
2023-03-10T10:48:51.973Z,99.90
2023-03-10T10:51:29.176Z,99.90
2023-03-10T10:54:00.987Z,99.90
2023-03-10T10:56:35.214Z,99.90
2023-03-10T10:59:09.685Z,99.90
2023-03-10T11:01:52.689Z,99.90
2023-03-10T11:04:24.746Z,99.90
2023-03-10T11:06:57.538Z,99.90
2023-03-10T11:09:28.343Z,99.90
2023-03-10T11:12:08.576Z,99.90
2023-03-10T11:14:52.681Z,99.90
2023-03-10T11:17:29.825Z,99.90
2023-03-10T11:20:10.122Z,99.90
2023-03-10T11:22:45.419Z,99.90
2023-03-10T11:25:26.635Z,99.90
2023-03-10T11:28:20.680Z,99.90
2023-03-10T11:31:01.438Z,99.90
2023-03-10T11:33:40.326Z,99.90
2023-03-10T11:36:22.576Z,99.90
2023-03-10T11:39:00.032Z,99.90
2023-03-10T11:41:36.174Z,99.90
2023-03-10T11:44:18.692Z,99.90
2023-03-10T11:46:59.649Z,99.90
2023-03-10T11:49:38.771Z,99.90
2023-03-10T11:52:15.503Z,99.90
2023-03-10T11:54:50.805Z,99.90
2023-03-10T11:57:23.552Z,99.90
2023-03-10T12:00:00.842Z,99.90
2023-03-10T12:02:36.946Z,99.90
2023-03-10T12:05:13.768Z,99.90
2023-03-10T12:07:47.386Z,99.90
2023-03-10T12:10:21.519Z,99.90
2023-03-10T12:12:54.212Z,99.90
2023-03-10T12:15:34.059Z,99.90
2023-03-10T12:18:07.258Z,99.90
2023-03-10T12:20:39.028Z,99.90
2023-03-10T12:23:34.461Z,99.90
2023-03-10T12:26:05.616Z,99.90
2023-03-10T12:28:36.053Z,99.90
2023-03-10T12:31:11.600Z,99.90
2023-03-10T12:33:58.172Z,99.90
2023-03-10T12:36:40.433Z,99.90
2023-03-10T12:39:38.741Z,99.90
2023-03-10T12:42:31.619Z,99.90
2023-03-10T12:45:28.708Z,99.90
2023-03-10T12:48:07.798Z,99.90
2023-03-10T12:50:49.681Z,99.90
2023-03-10T12:53:31.657Z,99.90
2023-03-10T12:56:22.596Z,99.90
2023-03-10T12:59:00.540Z,99.90
2023-03-10T13:01:40.566Z,99.90
2023-03-10T13:04:20.041Z,99.90
2023-03-10T13:06:52.206Z,99.90
2023-03-10T13:09:29.496Z,99.90
2023-03-10T13:12:03.418Z,99.90
2023-03-10T13:14:40.309Z,99.90
2023-03-10T13:17:23.112Z,99.90
2023-03-10T13:20:08.715Z,99.90
2023-03-10T13:22:39.588Z,99.90
2023-03-10T13:25:16.373Z,99.90
2023-03-10T13:27:47.438Z,99.90
2023-03-10T13:30:22.136Z,99.90
2023-03-10T13:32:57.703Z,99.90
2023-03-10T13:35:36.165Z,99.90
2023-03-10T13:38:09.221Z,99.90
2023-03-10T13:40:42.677Z,99.90
2023-03-10T13:43:34.157Z,99.90
2023-03-10T13:46:09.869Z,99.90
2023-03-10T13:48:42.738Z,99.90
2023-03-10T13:51:24.736Z,99.90
2023-03-10T13:53:58.882Z,99.90
2023-03-10T13:56:32.531Z,99.90
2023-03-10T13:59:04.627Z,99.90
2023-03-10T14:01:39.075Z,99.90
2023-03-10T14:04:11.529Z,99.90
2023-03-10T14:06:45.353Z,99.90
2023-03-10T14:09:18.627Z,99.90
2023-03-10T14:11:50.265Z,99.90
2023-03-10T14:14:31.336Z,99.90
2023-03-10T14:17:04.318Z,99.90
2023-03-10T14:19:48.633Z,99.90
2023-03-10T14:22:46.412Z,99.90
2023-03-10T14:25:20.304Z,99.90
2023-03-10T14:27:58.051Z,99.90
2023-03-10T14:30:30.979Z,99.90
2023-03-10T14:33:03.507Z,99.90
2023-03-10T14:35:34.257Z,99.90
2023-03-10T14:38:07.986Z,99.90
2023-03-10T14:40:43.733Z,99.90
2023-03-10T14:43:18.715Z,99.90
2023-03-10T14:45:51.512Z,99.90
2023-03-10T14:48:26.423Z,99.90
2023-03-10T14:50:57.600Z,99.90
2023-03-10T14:53:32.131Z,99.90
2023-03-10T14:56:04.856Z,99.90
2023-03-10T14:58:40.103Z,99.90
2023-03-10T15:01:10.883Z,99.90
2023-03-10T15:03:42.015Z,99.90
2023-03-10T15:06:15.029Z,99.90
2023-03-10T15:08:48.900Z,99.90
2023-03-10T15:11:35.733Z,99.90
2023-03-10T15:14:13.454Z,99.90
2023-03-10T15:16:44.607Z,99.90
2023-03-10T15:19:21.236Z,99.90
2023-03-10T15:21:52.129Z,99.90
2023-03-10T15:24:25.917Z,99.90
2023-03-10T15:26:57.104Z,99.90
2023-03-10T15:29:28.222Z,99.90
2023-03-10T15:31:58.833Z,99.90
2023-03-10T15:34:29.952Z,99.90
2023-03-10T15:37:01.302Z,99.90
2023-03-10T15:39:37.103Z,99.90
2023-03-10T15:42:08.336Z,99.90
2023-03-10T15:44:40.154Z,99.90
2023-03-10T15:47:11.099Z,99.90
2023-03-10T15:49:42.736Z,99.90
2023-03-10T15:52:16.910Z,99.90
2023-03-10T15:54:50.683Z,99.90
2023-03-10T15:57:21.492Z,99.90
2023-03-10T15:59:53.708Z,99.90
2023-03-10T16:02:24.470Z,99.90
2023-03-10T16:04:55.949Z,99.90
2023-03-10T16:07:27.700Z,99.90
2023-03-10T16:10:01.473Z,99.90
2023-03-10T16:12:32.644Z,99.90
2023-03-10T16:15:03.774Z,99.90
2023-03-10T16:17:35.495Z,99.90
2023-03-10T16:20:12.298Z,99.90
2023-03-10T16:22:44.505Z,99.90
2023-03-10T16:25:19.682Z,99.90
2023-03-10T16:27:50.601Z,99.90
2023-03-10T16:30:22.924Z,99.90
2023-03-10T16:32:54.307Z,99.90
2023-03-10T16:35:25.649Z,99.90
2023-03-10T16:37:57.394Z,99.90
2023-03-10T16:40:31.396Z,99.90
2023-03-10T16:43:02.142Z,99.90
2023-03-10T16:45:33.503Z,99.90
2023-03-10T16:48:04.326Z,99.90
2023-03-10T16:50:36.564Z,99.90
2023-03-10T16:53:08.789Z,99.90
2023-03-10T16:55:42.816Z,99.90
2023-03-10T16:58:14.136Z,99.90
2023-03-10T17:00:45.303Z,99.90
2023-03-10T17:03:16.281Z,99.90
2023-03-10T17:05:49.208Z,99.90
2023-03-10T17:08:20.053Z,99.90
2023-03-10T17:10:53.726Z,99.90
2023-03-10T17:13:24.649Z,99.90
2023-03-10T17:15:55.726Z,99.90
2023-03-10T17:18:26.580Z,99.90
2023-03-10T17:20:57.678Z,99.90
2023-03-10T17:23:28.653Z,99.90
2023-03-10T17:26:03.041Z,99.90
2023-03-10T17:28:34.037Z,99.90
2023-03-10T17:31:09.253Z,99.90
2023-03-10T17:33:40.983Z,99.90
2023-03-10T17:36:15.285Z,99.90
2023-03-10T17:38:46.937Z,99.90
2023-03-10T17:41:20.780Z,99.90
2023-03-10T17:43:52.267Z,99.90
2023-03-10T17:46:25.221Z,99.90
2023-03-10T17:48:57.379Z,99.90
2023-03-10T17:51:33.481Z,99.90
2023-03-10T17:54:04.960Z,99.90
2023-03-10T17:56:39.140Z,99.90
2023-03-10T17:59:10.166Z,99.90
2023-03-10T18:01:41.696Z,99.90
2023-03-10T18:04:13.863Z,99.90
2023-03-10T18:06:45.891Z,99.90
2023-03-10T18:09:18.556Z,99.90
2023-03-10T18:11:52.881Z,99.90
2023-03-10T18:14:23.719Z,99.90
2023-03-10T18:16:55.444Z,99.90
2023-03-10T18:19:26.520Z,99.90
2023-03-10T18:21:58.636Z,99.90
2023-03-10T18:24:29.882Z,99.90
2023-03-10T18:27:04.620Z,99.90
2023-03-10T18:29:35.436Z,99.90
2023-03-10T18:32:06.852Z,99.90
2023-03-10T18:34:37.647Z,99.90
2023-03-10T18:37:08.879Z,99.90
2023-03-10T18:39:40.981Z,99.90
2023-03-10T18:42:16.137Z,99.90
2023-03-10T18:44:49.230Z,99.90
2023-03-10T18:47:20.418Z,99.90
2023-03-10T18:49:51.605Z,99.90
2023-03-10T18:52:22.836Z,99.90
2023-03-10T18:54:53.740Z,99.90
2023-03-10T18:57:27.431Z,99.90
2023-03-10T19:00:00.733Z,99.90
2023-03-10T19:02:32.256Z,99.90
2023-03-10T19:05:05.242Z,99.90
2023-03-10T19:07:37.369Z,99.90
2023-03-10T19:10:09.247Z,99.90
2023-03-10T19:12:43.768Z,99.90
2023-03-10T19:15:16.245Z,99.90
2023-03-10T19:17:47.426Z,99.90
2023-03-10T19:20:20.373Z,99.90
2023-03-10T19:22:53.038Z,99.90
2023-03-10T19:25:24.545Z,99.90
2023-03-10T19:27:58.338Z,99.90
2023-03-10T19:30:29.324Z,99.90
2023-03-10T19:33:00.469Z,99.90
2023-03-10T19:35:33.788Z,99.90
2023-03-10T19:38:05.747Z,99.90
2023-03-10T19:40:37.095Z,99.90
2023-03-10T19:43:10.807Z,99.90
2023-03-10T19:45:41.639Z,99.90
2023-03-10T19:48:12.783Z,99.90
2023-03-10T19:50:43.535Z,99.90
2023-03-10T19:53:14.783Z,99.90
2023-03-10T19:55:45.273Z,99.90
2023-03-10T19:58:19.265Z,99.90
2023-03-10T20:00:50.476Z,99.90
2023-03-10T20:03:23.412Z,99.90
2023-03-10T20:05:54.954Z,99.90
2023-03-10T20:08:26.816Z,99.90
2023-03-10T20:11:02.490Z,99.90
2023-03-10T20:13:36.838Z,99.90
2023-03-10T20:16:08.530Z,99.90
2023-03-10T20:18:39.811Z,99.90
2023-03-10T20:21:10.770Z,99.90
2023-03-10T20:23:47.672Z,99.90
2023-03-10T20:26:19.309Z,99.90
2023-03-10T20:28:53.616Z,99.90
2023-03-10T20:31:26.415Z,99.90
2023-03-10T20:33:57.745Z,99.90
2023-03-10T20:36:28.270Z,99.90
2023-03-10T20:38:59.697Z,99.90
2023-03-10T20:41:34.755Z,99.90
2023-03-10T20:44:14.296Z,99.90
2023-03-10T20:46:46.641Z,99.90
2023-03-10T20:49:18.672Z,99.90
2023-03-10T20:51:49.559Z,99.90
2023-03-10T20:54:20.998Z,99.90
2023-03-10T20:56:52.173Z,99.90
2023-03-10T20:59:26.027Z,99.90
2023-03-10T21:01:58.826Z,99.90
2023-03-10T21:04:30.486Z,99.90
2023-03-10T21:07:01.582Z,99.90
2023-03-10T21:09:33.001Z,99.90
2023-03-10T21:12:03.717Z,99.90
2023-03-10T21:14:39.976Z,99.90
2023-03-10T21:17:10.921Z,99.90
2023-03-10T21:19:42.085Z,99.90
2023-03-10T21:22:13.212Z,99.90
2023-03-10T21:24:44.263Z,99.90
2023-03-10T21:27:15.762Z,99.90
2023-03-10T21:29:49.923Z,99.90
2023-03-10T21:32:20.756Z,99.90
2023-03-10T21:34:52.177Z,99.90
2023-03-10T21:37:23.700Z,99.90
2023-03-10T21:39:55.451Z,99.90
2023-03-10T21:42:31.366Z,99.90
2023-03-10T21:45:07.058Z,99.90
2023-03-10T21:47:38.088Z,99.90
2023-03-10T21:50:11.492Z,99.90
2023-03-10T21:52:42.467Z,99.90
2023-03-10T21:55:20.473Z,99.90
2023-03-10T21:57:51.451Z,99.90
2023-03-10T22:00:25.975Z,99.90
2023-03-10T22:02:59.905Z,99.90
2023-03-10T22:05:31.905Z,99.90
2023-03-10T22:08:03.301Z,99.90
2023-03-10T22:10:35.062Z,99.90
2023-03-10T22:13:05.974Z,99.90
2023-03-10T22:15:39.739Z,99.90
2023-03-10T22:18:11.011Z,99.90
2023-03-10T22:20:42.270Z,99.90
2023-03-10T22:23:13.161Z,99.90
2023-03-10T22:25:44.302Z,99.90
2023-03-10T22:28:15.036Z,99.90
2023-03-10T22:30:48.687Z,99.90
2023-03-10T22:33:19.433Z,99.90
2023-03-10T22:35:52.428Z,99.90
2023-03-10T22:38:23.774Z,99.90
2023-03-10T22:40:54.902Z,99.90
2023-03-10T22:43:25.643Z,99.90
2023-03-10T22:46:00.101Z,99.90
2023-03-10T22:48:31.811Z,99.90
2023-03-10T22:51:03.383Z,99.90
2023-03-10T22:53:35.327Z,99.90
2023-03-10T22:56:08.523Z,99.90
2023-03-10T22:58:39.703Z,99.90
2023-03-10T23:01:13.589Z,99.90
2023-03-10T23:03:45.486Z,99.90
2023-03-10T23:06:17.116Z,99.90
2023-03-10T23:08:48.818Z,99.90
2023-03-10T23:11:20.503Z,99.90
2023-03-10T23:13:51.780Z,99.90
2023-03-10T23:16:25.831Z,99.90
2023-03-10T23:18:56.778Z,99.90
2023-03-10T23:21:28.013Z,99.90
2023-03-10T23:23:59.354Z,99.90
2023-03-10T23:26:31.618Z,99.90
2023-03-10T23:29:03.004Z,99.90
2023-03-10T23:31:37.150Z,99.90
2023-03-10T23:34:08.056Z,99.90
2023-03-10T23:36:40.241Z,99.90
2023-03-10T23:39:13.729Z,99.90
2023-03-10T23:41:45.743Z,99.90
2023-03-10T23:44:16.951Z,99.90
2023-03-10T23:46:53.991Z,99.90
2023-03-10T23:49:25.248Z,99.90
2023-03-10T23:51:56.721Z,99.90
2023-03-10T23:54:28.454Z,99.90
2023-03-10T23:56:59.855Z,99.90
2023-03-10T23:59:31.053Z,99.90
